Time;durP1;ratioP1;P1;durP2;ratioP2;P2;SDS_P1;SDS_P2;PMS_P1;PMS_P2;Temp;Humidity;BMP_temperature;BMP_pressure;BME280_temperature;BME280_humidity;BME280_pressure;Samples;Min_cycle;Max_cycle;Signal;HPM_P1;HPM_P2
2022/04/12 00:01:32;;;;;;;68.63;9.50;;;;;;;;;;5095326;28;20538;-74
2022/04/12 00:04:01;;;;;;;66.67;9.20;;;;;;;;;;5095335;28;20444;-73
2022/04/12 00:06:28;;;;;;;66.40;8.87;;;;;;;;;;5095365;28;20454;-74
2022/04/12 00:08:55;;;;;;;65.50;7.87;;;;;;;;;;5094281;28;21009;-74
2022/04/12 00:11:24;;;;;;;64.30;7.60;;;;;;;;;;5095170;28;20542;-73
2022/04/12 00:13:51;;;;;;;63.87;7.03;;;;;;;;;;5094954;28;20449;-72
2022/04/12 00:16:19;;;;;;;63.47;6.70;;;;;;;;;;5095096;28;20450;-74
2022/04/12 00:19:04;;;;;;;62.63;6.90;;;;;;;;;;5089946;28;20467;-73
2022/04/12 00:21:34;;;;;;;63.87;6.97;;;;;;;;;;5095265;28;20444;-74
2022/04/12 00:24:01;;;;;;;63.07;6.37;;;;;;;;;;5095026;28;20448;-74
2022/04/12 00:26:29;;;;;;;62.47;5.70;;;;;;;;;;5094812;28;20458;-73
2022/04/12 00:28:57;;;;;;;63.03;6.90;;;;;;;;;;5094186;28;20994;-74
2022/04/12 00:31:24;;;;;;;67.10;6.50;;;;;;;;;;5094815;28;20735;-74
2022/04/12 00:33:51;;;;;;;67.07;6.97;;;;;;;;;;5094875;28;20447;-73
2022/04/12 00:36:18;;;;;;;63.47;7.23;;;;;;;;;;5094775;28;20477;-74
2022/04/12 00:38:45;;;;;;;62.17;6.40;;;;;;;;;;5093916;28;20468;-74
2022/04/12 00:41:12;;;;;;;64.80;5.80;;;;;;;;;;5094904;28;20231;-74
2022/04/12 00:43:41;;;;;;;63.30;6.47;;;;;;;;;;5094608;28;20208;-73
2022/04/12 00:46:08;;;;;;;61.93;6.13;;;;;;;;;;5094515;28;20455;-73
2022/04/12 00:48:35;;;;;;;63.15;6.00;;;;;;;;;;5093697;28;21066;-74
2022/04/12 00:51:02;;;;;;;63.47;6.72;;;;;;;;;;5091924;28;20296;-73
2022/04/12 00:53:30;;;;;;;62.23;6.37;;;;;;;;;;5073433;28;20681;-74
2022/04/12 00:55:57;;;;;;;65.23;6.63;;;;;;;;;;5074469;28;20944;-74
2022/04/12 00:58:25;;;;;;;64.63;6.22;;;;;;;;;;5073583;28;20451;-74
2022/04/12 01:00:53;;;;;;;64.82;6.55;;;;;;;;;;5074483;28;20572;-74
2022/04/12 01:03:21;;;;;;;62.22;6.22;;;;;;;;;;5074031;28;20213;-72
2022/04/12 01:05:49;;;;;;;61.30;5.80;;;;;;;;;;5074094;28;20296;-74
2022/04/12 01:08:16;;;;;;;63.28;6.95;;;;;;;;;;5073074;28;20229;-73
2022/04/12 01:10:44;;;;;;;61.97;6.40;;;;;;;;;;5074059;28;20651;-74
2022/04/12 01:13:11;;;;;;;62.25;6.88;;;;;;;;;;5073777;28;20206;-73
2022/04/12 01:15:39;;;;;;;64.03;6.45;;;;;;;;;;5073907;28;20259;-73
2022/04/12 01:18:08;;;;;;;62.30;6.22;;;;;;;;;;5072972;28;20229;-73
2022/04/12 01:20:35;;;;;;;63.28;6.30;;;;;;;;;;5073645;28;20201;-72
2022/04/12 01:23:06;;;;;;;66.25;6.90;;;;;;;;;;5072611;28;20201;-73
2022/04/12 01:25:35;;;;;;;62.20;6.00;;;;;;;;;;5091786;28;20736;-73
2022/04/12 01:28:02;;;;;;;61.63;6.68;;;;;;;;;;5093182;28;20793;-73
2022/04/12 01:30:29;;;;;;;63.78;6.50;;;;;;;;;;5093706;28;20235;-74
2022/04/12 01:32:56;;;;;;;61.67;5.43;;;;;;;;;;5093539;28;20209;-74
2022/04/12 01:35:23;;;;;;;62.70;6.25;;;;;;;;;;5093894;28;20243;-72
2022/04/12 01:37:50;;;;;;;62.85;6.70;;;;;;;;;;5092839;28;20307;-73
2022/04/12 01:40:18;;;;;;;66.60;6.18;;;;;;;;;;5094076;28;20295;-73
2022/04/12 01:42:46;;;;;;;62.55;7.18;;;;;;;;;;5093578;28;20581;-74
2022/04/12 01:45:13;;;;;;;65.55;6.57;;;;;;;;;;5093468;28;20205;-74
2022/04/12 01:47:40;;;;;;;63.40;6.82;;;;;;;;;;5092453;28;20311;-74
2022/04/12 01:50:08;;;;;;;65.75;6.78;;;;;;;;;;5077873;28;20227;-72
2022/04/12 01:52:36;;;;;;;65.55;6.15;;;;;;;;;;5073161;28;20210;-74
2022/04/12 01:55:04;;;;;;;63.70;7.20;;;;;;;;;;5072978;28;20581;-74
2022/04/12 01:57:31;;;;;;;63.22;6.60;;;;;;;;;;5086654;28;20236;-74
2022/04/12 02:00:00;;;;;;;62.58;6.35;;;;;;;;;;5093431;28;20200;-74
2022/04/12 02:02:27;;;;;;;62.75;7.25;;;;;;;;;;5093391;28;20208;-74
2022/04/12 02:04:55;;;;;;;62.30;6.28;;;;;;;;;;5092973;28;20300;-74
2022/04/12 02:07:22;;;;;;;66.90;5.75;;;;;;;;;;5091761;28;20245;-74
2022/04/12 02:09:49;;;;;;;61.83;6.32;;;;;;;;;;5092832;28;20242;-74
2022/04/12 02:12:16;;;;;;;62.88;6.65;;;;;;;;;;5092872;28;20211;-74
2022/04/12 02:14:43;;;;;;;67.78;6.20;;;;;;;;;;5092944;28;20299;-74
2022/04/12 02:17:12;;;;;;;61.58;6.50;;;;;;;;;;5092242;28;20208;-73
2022/04/12 02:19:39;;;;;;;62.25;6.57;;;;;;;;;;5092858;28;20292;-73
2022/04/12 02:22:07;;;;;;;63.33;6.60;;;;;;;;;;5092881;28;20595;-74
2022/04/12 02:24:34;;;;;;;64.28;6.60;;;;;;;;;;5092659;28;20645;-74
2022/04/12 02:27:01;;;;;;;63.60;6.53;;;;;;;;;;5091720;28;20715;-74
2022/04/12 02:29:29;;;;;;;64.32;7.20;;;;;;;;;;5071061;28;20315;-74
2022/04/12 02:31:56;;;;;;;62.30;6.13;;;;;;;;;;5072449;28;20212;-74
2022/04/12 02:34:24;;;;;;;62.80;6.30;;;;;;;;;;5072320;28;20207;-73
2022/04/12 02:36:51;;;;;;;63.05;6.25;;;;;;;;;;5072115;28;20205;-74
2022/04/12 02:39:19;;;;;;;62.47;6.43;;;;;;;;;;5071754;28;20227;-74
2022/04/12 02:41:46;;;;;;;63.65;6.90;;;;;;;;;;5072394;28;20208;-74
2022/04/12 02:44:13;;;;;;;62.92;6.53;;;;;;;;;;5072358;28;20205;-74
2022/04/12 02:46:40;;;;;;;61.88;6.00;;;;;;;;;;5072206;28;20215;-74
2022/04/12 02:49:08;;;;;;;62.78;6.75;;;;;;;;;;5071140;28;20607;-74
2022/04/12 02:51:36;;;;;;;64.95;7.20;;;;;;;;;;5072211;28;20636;-74
2022/04/12 02:54:03;;;;;;;62.67;6.95;;;;;;;;;;5072126;28;20661;-74
2022/04/12 02:56:30;;;;;;;64.85;7.03;;;;;;;;;;5072018;28;20691;-74
2022/04/12 02:58:58;;;;;;;62.95;7.03;;;;;;;;;;5070129;28;20315;-73
2022/04/12 03:01:25;;;;;;;62.65;6.15;;;;;;;;;;5069148;28;20232;-74
2022/04/12 03:03:52;;;;;;;63.10;7.05;;;;;;;;;;5071764;28;20679;-74
2022/04/12 03:06:19;;;;;;;66.72;6.93;;;;;;;;;;5072148;28;20635;-74
2022/04/12 03:08:48;;;;;;;65.78;7.28;;;;;;;;;;5071154;28;20247;-74
2022/04/12 03:11:15;;;;;;;62.63;6.50;;;;;;;;;;5072091;28;20640;-74
2022/04/12 03:13:42;;;;;;;62.85;6.97;;;;;;;;;;5071735;28;20205;-73
2022/04/12 03:16:09;;;;;;;62.50;5.78;;;;;;;;;;5071826;28;20303;-74
2022/04/12 03:18:36;;;;;;;64.97;7.03;;;;;;;;;;5070037;28;20312;-73
2022/04/12 03:21:03;;;;;;;64.20;8.00;;;;;;;;;;5071659;28;20677;-74
2022/04/12 03:23:31;;;;;;;64.75;7.20;;;;;;;;;;5071619;28;20205;-74
2022/04/12 03:25:59;;;;;;;68.60;7.28;;;;;;;;;;5071624;28;20630;-75
2022/04/12 03:28:26;;;;;;;68.55;7.38;;;;;;;;;;5070696;28;20311;-72
2022/04/12 03:30:53;;;;;;;67.55;8.68;;;;;;;;;;5068430;28;20225;-74
2022/04/12 03:33:20;;;;;;;63.55;7.28;;;;;;;;;;5071686;28;20643;-73
2022/04/12 03:35:48;;;;;;;70.50;8.13;;;;;;;;;;5071545;28;20211;-76
2022/04/12 03:38:16;;;;;;;63.05;7.30;;;;;;;;;;5070964;28;20668;-74
2022/04/12 03:40:46;;;;;;;65.95;6.30;;;;;;;;;;5071738;28;20622;-77
2022/04/12 03:43:14;;;;;;;70.10;6.47;;;;;;;;;;5071268;28;20685;-74
2022/04/12 03:45:41;;;;;;;65.88;7.45;;;;;;;;;;5071324;28;20555;-74
2022/04/12 03:48:09;;;;;;;63.13;6.78;;;;;;;;;;5070536;28;20434;-75
2022/04/12 03:50:36;;;;;;;66.20;6.50;;;;;;;;;;5071630;28;20231;-75
2022/04/12 03:53:03;;;;;;;65.45;7.13;;;;;;;;;;5071405;28;20207;-72
2022/04/12 03:55:35;;;;;;;66.50;7.85;;;;;;;;;;5071327;28;20204;-74
2022/04/12 03:58:03;;;;;;;64.30;6.47;;;;;;;;;;5070556;28;20281;-74
2022/04/12 04:00:31;;;;;;;62.30;6.35;;;;;;;;;;5071515;28;20292;-74
2022/04/12 04:02:59;;;;;;;62.67;6.53;;;;;;;;;;5067835;28;20228;-74
2022/04/12 04:05:26;;;;;;;64.82;6.75;;;;;;;;;;5071466;28;20289;-74
2022/04/12 04:07:53;;;;;;;63.83;6.55;;;;;;;;;;5070552;28;20257;-73
2022/04/12 04:10:21;;;;;;;64.70;7.30;;;;;;;;;;5071134;28;20307;-74
2022/04/12 04:12:48;;;;;;;62.45;6.40;;;;;;;;;;5070951;28;20211;-74
2022/04/12 04:15:16;;;;;;;64.95;7.13;;;;;;;;;;5071368;28;20258;-73
2022/04/12 04:17:45;;;;;;;63.95;6.75;;;;;;;;;;5070520;28;20595;-74
2022/04/12 04:20:12;;;;;;;62.63;6.10;;;;;;;;;;5071130;28;20227;-74
2022/04/12 04:22:40;;;;;;;63.08;7.10;;;;;;;;;;5071121;28;20661;-74
2022/04/12 04:25:08;;;;;;;62.67;6.65;;;;;;;;;;5071026;28;20209;-74
2022/04/12 04:27:35;;;;;;;64.30;7.10;;;;;;;;;;5070470;28;20225;-74
2022/04/12 04:30:04;;;;;;;64.22;6.63;;;;;;;;;;5072797;28;20227;-74
2022/04/12 04:32:31;;;;;;;60.80;5.70;;;;;;;;;;5074566;28;20311;-74
2022/04/12 04:34:59;;;;;;;62.85;6.70;;;;;;;;;;5084830;28;20703;-73
2022/04/12 04:37:27;;;;;;;64.03;6.90;;;;;;;;;;5094020;28;20303;-74
2022/04/12 04:39:54;;;;;;;65.32;7.55;;;;;;;;;;5094648;28;20200;-74
2022/04/12 04:42:22;;;;;;;65.05;7.50;;;;;;;;;;5094914;28;20291;-74
2022/04/12 04:44:49;;;;;;;64.72;7.30;;;;;;;;;;5095010;28;20215;-74
2022/04/12 04:47:16;;;;;;;64.32;6.53;;;;;;;;;;5094035;28;20208;-73
2022/04/12 04:49:43;;;;;;;62.45;6.53;;;;;;;;;;5094493;28;20224;-74
2022/04/12 04:52:12;;;;;;;64.78;6.97;;;;;;;;;;5094502;28;20299;-73
2022/04/12 04:54:39;;;;;;;65.72;7.30;;;;;;;;;;5094838;28;20260;-74
2022/04/12 04:57:06;;;;;;;63.55;7.00;;;;;;;;;;5094512;28;20210;-74
2022/04/12 04:59:33;;;;;;;63.33;7.22;;;;;;;;;;5094325;28;20319;-74
2022/04/12 05:02:00;;;;;;;62.78;7.10;;;;;;;;;;5094832;28;20290;-75
2022/04/12 05:04:28;;;;;;;65.85;6.00;;;;;;;;;;5094561;28;20707;-75
2022/04/12 05:06:55;;;;;;;62.45;6.30;;;;;;;;;;5072258;28;20318;-73
2022/04/12 05:09:23;;;;;;;63.05;6.47;;;;;;;;;;5073388;28;20996;-75
2022/04/12 05:11:50;;;;;;;73.93;7.72;;;;;;;;;;5074333;28;20201;-75
2022/04/12 05:14:18;;;;;;;64.10;7.07;;;;;;;;;;5073974;28;20215;-74
2022/04/12 05:16:45;;;;;;;62.97;6.90;;;;;;;;;;5073927;28;20240;-75
2022/04/12 05:19:12;;;;;;;64.18;6.50;;;;;;;;;;5073016;28;20220;-74
2022/04/12 05:21:39;;;;;;;65.20;7.57;;;;;;;;;;5073947;28;20232;-74
2022/04/12 05:24:06;;;;;;;63.80;6.25;;;;;;;;;;5073819;28;20205;-74
2022/04/12 05:26:35;;;;;;;61.95;6.78;;;;;;;;;;5073790;28;20212;-73
2022/04/12 05:29:02;;;;;;;64.55;6.68;;;;;;;;;;5072933;28;20221;-74
2022/04/12 05:31:29;;;;;;;64.90;7.85;;;;;;;;;;5073462;28;20316;-74
2022/04/12 05:33:56;;;;;;;63.83;6.82;;;;;;;;;;5073340;28;20209;-74
2022/04/12 05:36:23;;;;;;;64.63;7.32;;;;;;;;;;5072588;28;20295;-69
2022/04/12 05:38:51;;;;;;;63.15;7.30;;;;;;;;;;5092893;28;20230;-74
2022/04/12 05:41:18;;;;;;;71.85;8.10;;;;;;;;;;5093002;28;20302;-74
2022/04/12 05:43:46;;;;;;;63.05;6.75;;;;;;;;;;5093502;28;20767;-74
2022/04/12 05:46:13;;;;;;;62.83;6.10;;;;;;;;;;5093409;28;20204;-74
2022/04/12 05:48:40;;;;;;;63.08;7.15;;;;;;;;;;5092403;28;20228;-74
2022/04/12 05:51:08;;;;;;;63.95;7.47;;;;;;;;;;5093523;28;20318;-74
2022/04/12 05:53:35;;;;;;;64.20;7.50;;;;;;;;;;5093396;28;20291;-74
2022/04/12 05:56:02;;;;;;;64.45;7.20;;;;;;;;;;5093600;28;20211;-73
2022/04/12 05:58:32;;;;;;;62.88;7.05;;;;;;;;;;5092609;28;20220;-73
2022/04/12 06:01:01;;;;;;;63.28;7.68;;;;;;;;;;5093200;28;20258;-74
2022/04/12 06:03:28;;;;;;;62.63;6.28;;;;;;;;;;5093266;28;20204;-74
2022/04/12 06:05:55;;;;;;;64.03;7.47;;;;;;;;;;5093190;28;20247;-74
2022/04/12 06:08:22;;;;;;;65.90;7.95;;;;;;;;;;5088340;28;20246;-74
2022/04/12 06:10:49;;;;;;;67.70;7.63;;;;;;;;;;5093247;28;20221;-74
2022/04/12 06:13:16;;;;;;;66.22;8.00;;;;;;;;;;5092934;28;20291;-74
2022/04/12 06:15:43;;;;;;;63.88;8.15;;;;;;;;;;5092979;28;20208;-74
2022/04/12 06:18:12;;;;;;;66.57;6.43;;;;;;;;;;5092266;28;20252;-74
2022/04/12 06:20:39;;;;;;;63.17;6.65;;;;;;;;;;5092993;28;20236;-74
2022/04/12 06:23:07;;;;;;;65.53;6.78;;;;;;;;;;5092892;28;20291;-74
2022/04/12 06:25:34;;;;;;;63.75;7.40;;;;;;;;;;5092752;28;20205;-74
2022/04/12 06:28:01;;;;;;;67.63;7.35;;;;;;;;;;5091931;28;20311;-73
2022/04/12 06:30:30;;;;;;;65.22;7.53;;;;;;;;;;5092899;28;20315;-74
2022/04/12 06:32:57;;;;;;;64.70;7.28;;;;;;;;;;5092682;28;20212;-74
2022/04/12 06:35:26;;;;;;;63.63;7.05;;;;;;;;;;5092612;28;20203;-74
2022/04/12 06:37:56;;;;;;;63.97;6.95;;;;;;;;;;5091905;28;20320;-74
2022/04/12 06:40:24;;;;;;;64.00;7.97;;;;;;;;;;5087785;28;20243;-74
2022/04/12 06:42:51;;;;;;;62.97;7.30;;;;;;;;;;5092318;28;20602;-74
2022/04/12 06:45:19;;;;;;;65.78;7.00;;;;;;;;;;5092641;28;20200;-74
2022/04/12 06:47:52;;;;;;;65.60;7.43;;;;;;;;;;5091905;28;20663;-74
2022/04/12 06:50:20;;;;;;;68.27;7.47;;;;;;;;;;5092185;28;20609;-74
2022/04/12 06:52:48;;;;;;;63.05;7.45;;;;;;;;;;5092271;28;20450;-74
2022/04/12 06:55:16;;;;;;;63.22;6.75;;;;;;;;;;5092227;28;20243;-74
2022/04/12 06:57:44;;;;;;;67.20;8.07;;;;;;;;;;5091730;28;20248;-74
2022/04/12 07:00:11;;;;;;;63.65;7.28;;;;;;;;;;5092323;28;20449;-74
2022/04/12 07:02:38;;;;;;;68.73;7.80;;;;;;;;;;5092069;28;20619;-74
2022/04/12 07:05:07;;;;;;;61.37;6.47;;;;;;;;;;5092203;28;20446;-74
2022/04/12 07:07:36;;;;;;;62.37;6.77;;;;;;;;;;5091111;28;20472;-74
2022/04/12 07:10:05;;;;;;;64.90;6.80;;;;;;;;;;5082045;28;20532;-74
2022/04/12 07:12:32;;;;;;;61.97;6.60;;;;;;;;;;5077551;28;20495;-74
2022/04/12 07:14:59;;;;;;;63.30;6.53;;;;;;;;;;5092360;28;20492;-74
2022/04/12 07:17:26;;;;;;;61.17;6.57;;;;;;;;;;5091258;28;20470;-75
2022/04/12 07:19:53;;;;;;;65.30;6.50;;;;;;;;;;5091984;28;20445;-74
2022/04/12 07:22:20;;;;;;;65.87;6.20;;;;;;;;;;5091743;28;20808;-74
2022/04/12 07:24:47;;;;;;;61.00;6.27;;;;;;;;;;5092081;28;20442;-74
2022/04/12 07:27:16;;;;;;;66.93;6.17;;;;;;;;;;5091053;28;20448;-75
2022/04/12 07:29:43;;;;;;;61.60;6.00;;;;;;;;;;5092503;28;20454;-73
2022/04/12 07:32:10;;;;;;;64.73;5.90;;;;;;;;;;5093506;28;20579;-75
2022/04/12 07:34:37;;;;;;;62.10;5.57;;;;;;;;;;5091583;28;20544;-75
2022/04/12 07:37:05;;;;;;;61.57;5.30;;;;;;;;;;5091497;28;20445;-71
2022/04/12 07:39:32;;;;;;;61.67;5.37;;;;;;;;;;5091566;28;20546;-75
2022/04/12 07:41:59;;;;;;;64.10;5.30;;;;;;;;;;5091009;28;20478;-75
2022/04/12 07:44:27;;;;;;;63.70;6.17;;;;;;;;;;5087930;28;20957;-74
2022/04/12 07:46:55;;;;;;;63.13;6.20;;;;;;;;;;5091672;28;20454;-75
2022/04/12 07:49:22;;;;;;;60.90;5.30;;;;;;;;;;5090575;28;20477;-74
2022/04/12 07:51:49;;;;;;;61.17;5.40;;;;;;;;;;5091567;28;20478;-75
2022/04/12 07:54:16;;;;;;;60.53;5.40;;;;;;;;;;5091612;28;20532;-75
2022/04/12 07:56:43;;;;;;;64.07;5.80;;;;;;;;;;5091564;28;20953;-74
2022/04/12 07:59:10;;;;;;;61.30;6.20;;;;;;;;;;5090895;28;20466;-75
2022/04/12 08:01:39;;;;;;;60.33;5.17;;;;;;;;;;5090369;28;20450;-74
2022/04/12 08:04:06;;;;;;;61.17;5.10;;;;;;;;;;5091798;28;20938;-74
2022/04/12 08:06:33;;;;;;;65.07;5.10;;;;;;;;;;5095712;28;20456;-75
2022/04/12 08:09:00;;;;;;;60.13;5.17;;;;;;;;;;5095019;28;20557;-74
2022/04/12 08:11:28;;;;;;;60.37;4.97;;;;;;;;;;5095518;28;20568;-75
2022/04/12 08:13:55;;;;;;;60.50;4.77;;;;;;;;;;5095370;28;20454;-74
2022/04/12 08:16:22;;;;;;;62.30;5.33;;;;;;;;;;5091068;28;20456;-74
2022/04/12 08:18:51;;;;;;;61.87;4.53;;;;;;;;;;5094750;28;20472;-75
2022/04/12 08:21:31;;;;;;;61.50;4.87;;;;;;;;;;5095329;28;20882;-75
2022/04/12 08:23:58;;;;;;;65.50;4.87;;;;;;;;;;5095339;28;20532;-75
2022/04/12 08:26:25;;;;;;;65.03;5.70;;;;;;;;;;5095311;28;20464;-75
2022/04/12 08:28:52;;;;;;;61.73;4.80;;;;;;;;;;5094248;28;20497;-73
2022/04/12 08:31:20;;;;;;;61.30;5.40;;;;;;;;;;5095203;28;20482;-75
2022/04/12 08:33:47;;;;;;;62.77;4.97;;;;;;;;;;5095229;28;20825;-74
2022/04/12 08:36:16;;;;;;;61.50;5.30;;;;;;;;;;5095093;28;20477;-75
2022/04/12 08:38:44;;;;;;;59.93;4.57;;;;;;;;;;5094414;28;20467;-75
2022/04/12 08:41:12;;;;;;;62.77;5.17;;;;;;;;;;5094937;28;20469;-75
2022/04/12 08:43:39;;;;;;;60.57;4.60;;;;;;;;;;5094605;28;20451;-73
2022/04/12 08:46:07;;;;;;;64.17;5.53;;;;;;;;;;5094965;28;20537;-75
2022/04/12 08:48:34;;;;;;;60.90;4.67;;;;;;;;;;5089737;28;20896;-75
2022/04/12 08:51:02;;;;;;;61.37;4.97;;;;;;;;;;5094718;28;20899;-75
2022/04/12 08:53:30;;;;;;;60.93;5.23;;;;;;;;;;5094452;28;20444;-73
2022/04/12 08:55:58;;;;;;;60.30;4.90;;;;;;;;;;5095020;28;20455;-75
2022/04/12 08:58:25;;;;;;;60.37;4.37;;;;;;;;;;5093963;28;20555;-75
2022/04/12 09:00:52;;;;;;;60.40;5.20;;;;;;;;;;5094915;28;20466;-72
2022/04/12 09:03:19;;;;;;;60.40;4.57;;;;;;;;;;5095449;28;20889;-73
2022/04/12 09:05:46;;;;;;;60.90;4.97;;;;;;;;;;5095661;28;20449;-73
2022/04/12 09:08:29;;;;;;;60.70;5.13;;;;;;;;;;5095268;28;20560;-76
2022/04/12 09:10:59;;;;;;;59.87;4.87;;;;;;;;;;5095257;28;20492;-76
2022/04/12 09:13:26;;;;;;;61.30;4.50;;;;;;;;;;5094705;28;20442;-76
2022/04/12 09:15:54;;;;;;;60.07;4.43;;;;;;;;;;5093001;28;20560;-74
2022/04/12 09:18:34;;;;;;;60.60;4.37;;;;;;;;;;5093390;28;20505;-76
2022/04/12 09:21:11;;;;;;;59.60;4.57;;;;;;;;;;5077260;28;20948;-75
2022/04/12 09:23:38;;;;;;;61.57;4.00;;;;;;;;;;5074146;28;20477;-76
2022/04/12 09:26:07;;;;;;;60.80;4.50;;;;;;;;;;5074129;28;20970;-76
2022/04/12 09:28:40;;;;;;;61.20;4.40;;;;;;;;;;5073158;28;20806;-76
2022/04/12 09:31:14;;;;;;;60.60;4.20;;;;;;;;;;5073668;28;20491;-76
2022/04/12 09:33:42;;;;;;;60.50;4.00;;;;;;;;;;5073516;28;20978;-76
2022/04/12 09:36:09;;;;;;;60.20;3.83;;;;;;;;;;5073843;28;20480;-76
2022/04/12 09:38:38;;;;;;;62.97;4.60;;;;;;;;;;5073068;28;20844;-75
2022/04/12 09:41:23;;;;;;;59.90;4.60;;;;;;;;;;5073632;28;20475;-75
2022/04/12 09:44:07;;;;;;;60.07;4.00;;;;;;;;;;5075133;28;20546;-75
2022/04/12 09:46:35;;;;;;;60.07;4.00;;;;;;;;;;5073379;28;20947;-75
2022/04/12 09:49:02;;;;;;;60.10;4.00;;;;;;;;;;5073696;28;20491;-76
2022/04/12 09:51:30;;;;;;;65.60;3.90;;;;;;;;;;5073389;28;20483;-73
2022/04/12 09:53:57;;;;;;;59.33;4.10;;;;;;;;;;5093012;28;20448;-76
2022/04/12 09:56:27;;;;;;;60.70;4.03;;;;;;;;;;5094296;28;20487;-76
2022/04/12 09:58:55;;;;;;;61.67;4.23;;;;;;;;;;5093454;28;20525;-76
2022/04/12 10:01:23;;;;;;;60.37;3.73;;;;;;;;;;5093796;28;20474;-73
2022/04/12 10:03:51;;;;;;;63.30;3.70;;;;;;;;;;5093955;28;20447;-74
2022/04/12 10:06:19;;;;;;;60.60;3.60;;;;;;;;;;5094100;28;21037;-74
2022/04/12 10:08:48;;;;;;;59.57;3.50;;;;;;;;;;5092642;28;20464;-74
2022/04/12 10:11:15;;;;;;;59.70;3.33;;;;;;;;;;5093116;28;20532;-72
2022/04/12 10:13:44;;;;;;;59.43;3.67;;;;;;;;;;5093658;28;20449;-74
2022/04/12 10:16:11;;;;;;;60.07;2.93;;;;;;;;;;5093815;28;20754;-74
2022/04/12 10:18:39;;;;;;;59.37;3.10;;;;;;;;;;5092810;28;20466;-74
2022/04/12 10:21:06;;;;;;;58.60;2.97;;;;;;;;;;5093753;28;20512;-74
2022/04/12 10:23:34;;;;;;;60.20;3.03;;;;;;;;;;5092401;28;20572;-76
2022/04/12 10:26:01;;;;;;;58.67;3.00;;;;;;;;;;5090461;28;20461;-74
2022/04/12 10:28:29;;;;;;;59.53;3.20;;;;;;;;;;5093874;28;21035;-75
2022/04/12 10:31:05;;;;;;;59.37;3.50;;;;;;;;;;5093887;28;20466;-74
2022/04/12 10:33:34;;;;;;;62.40;3.17;;;;;;;;;;5094616;28;20535;-73
2022/04/12 10:36:05;;;;;;;58.90;3.10;;;;;;;;;;5094622;28;20454;-74
2022/04/12 10:38:40;;;;;;;59.30;3.20;;;;;;;;;;5093184;28;20471;-75
2022/04/12 10:41:15;;;;;;;58.50;3.10;;;;;;;;;;5093699;28;20450;-75
2022/04/12 10:43:42;;;;;;;58.50;3.00;;;;;;;;;;5093904;28;20530;-75
2022/04/12 10:46:12;;;;;;;58.70;2.73;;;;;;;;;;5093814;28;20481;-74
2022/04/12 10:48:40;;;;;;;59.37;3.00;;;;;;;;;;5093315;28;20478;-75
2022/04/12 10:51:07;;;;;;;59.40;2.70;;;;;;;;;;5094628;28;20453;-73
2022/04/12 10:53:49;;;;;;;58.40;2.83;;;;;;;;;;5094331;28;20557;-70
2022/04/12 10:56:17;;;;;;;59.87;2.83;;;;;;;;;;5090150;28;20871;-72
2022/04/12 10:58:45;;;;;;;58.00;2.73;;;;;;;;;;5091968;28;20467;-72
2022/04/12 11:01:27;;;;;;;59.23;2.73;;;;;;;;;;5092116;28;21008;-73
2022/04/12 11:03:56;;;;;;;58.10;2.50;;;;;;;;;;5073481;28;20981;-73
2022/04/12 11:06:24;;;;;;;61.70;2.50;;;;;;;;;;5071517;28;20893;-74
2022/04/12 11:08:52;;;;;;;58.10;2.80;;;;;;;;;;5071312;28;20485;-73
2022/04/12 11:11:20;;;;;;;58.10;2.73;;;;;;;;;;5071814;28;20440;-72
2022/04/12 11:13:49;;;;;;;58.40;2.87;;;;;;;;;;5071866;28;20459;-74
2022/04/12 11:16:19;;;;;;;59.40;3.00;;;;;;;;;;5072013;28;20649;-74
2022/04/12 11:18:47;;;;;;;59.67;2.97;;;;;;;;;;5071213;28;20993;-74
2022/04/12 11:21:14;;;;;;;57.67;2.87;;;;;;;;;;5071933;28;20454;-74
2022/04/12 11:23:48;;;;;;;57.57;2.70;;;;;;;;;;5071598;28;20542;-73
2022/04/12 11:26:45;;;;;;;57.57;2.50;;;;;;;;;;5071719;28;20482;-74
2022/04/12 11:29:13;;;;;;;58.00;2.63;;;;;;;;;;5047740;28;21018;-74
2022/04/12 11:31:42;;;;;;;58.00;2.70;;;;;;;;;;5071589;28;20846;-74
2022/04/12 11:34:09;;;;;;;59.23;2.70;;;;;;;;;;5071383;28;20447;-74
2022/04/12 11:36:38;;;;;;;57.63;2.40;;;;;;;;;;5071882;28;20820;-74
2022/04/12 11:39:05;;;;;;;58.20;2.77;;;;;;;;;;5067738;28;20676;-74
2022/04/12 11:41:32;;;;;;;58.10;2.80;;;;;;;;;;5075930;28;20443;-73
2022/04/12 11:44:00;;;;;;;57.97;2.63;;;;;;;;;;5075813;28;20796;-74
2022/04/12 11:46:27;;;;;;;58.37;2.50;;;;;;;;;;5075874;28;20457;-74
2022/04/12 11:49:04;;;;;;;58.40;2.63;;;;;;;;;;5074599;28;20573;-73
2022/04/12 11:51:31;;;;;;;58.47;2.80;;;;;;;;;;5075763;28;20533;-73
2022/04/12 11:53:58;;;;;;;58.47;2.50;;;;;;;;;;5075567;28;20447;-73
2022/04/12 11:56:28;;;;;;;58.20;2.70;;;;;;;;;;5075558;28;20549;-73
2022/04/12 11:58:55;;;;;;;58.67;2.63;;;;;;;;;;5075247;28;20489;-74
2022/04/12 12:01:31;;;;;;;61.17;2.63;;;;;;;;;;5075945;28;20982;-68
2022/04/12 12:04:07;;;;;;;58.50;2.70;;;;;;;;;;5075684;28;20488;-68
2022/04/12 12:06:34;;;;;;;58.47;2.87;;;;;;;;;;5076029;28;21024;-74
2022/04/12 12:09:02;;;;;;;61.53;2.83;;;;;;;;;;5095380;28;20466;-70
2022/04/12 12:11:29;;;;;;;59.40;2.43;;;;;;;;;;5095944;28;20535;-73
2022/04/12 12:13:57;;;;;;;58.73;2.70;;;;;;;;;;5097512;28;20487;-71
2022/04/12 12:16:24;;;;;;;58.60;2.70;;;;;;;;;;5096231;28;20456;-71
2022/04/12 12:18:52;;;;;;;58.37;2.20;;;;;;;;;;5095385;28;20977;-70
2022/04/12 12:21:20;;;;;;;57.47;2.13;;;;;;;;;;5096220;28;20548;-71
2022/04/12 12:23:48;;;;;;;58.10;2.67;;;;;;;;;;5097951;28;20529;-72
2022/04/12 12:26:28;;;;;;;58.20;2.50;;;;;;;;;;5098525;28;20799;-73
2022/04/12 12:28:58;;;;;;;59.47;2.80;;;;;;;;;;5098656;28;21143;-73
2022/04/12 12:31:26;;;;;;;58.07;2.30;;;;;;;;;;5097768;28;20450;-71
2022/04/12 12:33:53;;;;;;;58.60;2.73;;;;;;;;;;5099688;28;20490;-72
2022/04/12 12:36:23;;;;;;;58.60;2.77;;;;;;;;;;5097323;28;20450;-68
2022/04/12 12:38:51;;;;;;;62.33;2.63;;;;;;;;;;5094368;28;20549;-72
2022/04/12 12:41:27;;;;;;;62.87;2.67;;;;;;;;;;5095115;28;20446;-73
2022/04/12 12:43:56;;;;;;;58.60;2.50;;;;;;;;;;5098312;28;20529;-72
2022/04/12 12:46:25;;;;;;;58.60;2.70;;;;;;;;;;5096617;28;20469;-73
2022/04/12 12:49:06;;;;;;;58.97;2.90;;;;;;;;;;5093311;28;20550;-73
2022/04/12 12:51:34;;;;;;;59.23;2.50;;;;;;;;;;5097267;28;21004;-73
2022/04/12 12:54:02;;;;;;;59.47;2.60;;;;;;;;;;5097183;28;21058;-74
2022/04/12 12:56:33;;;;;;;59.70;2.83;;;;;;;;;;5097324;28;20450;-73
2022/04/12 12:59:17;;;;;;;58.43;2.63;;;;;;;;;;5096023;28;20477;-74
2022/04/12 13:01:45;;;;;;;58.10;2.50;;;;;;;;;;5096501;28;20438;-72
2022/04/12 13:04:20;;;;;;;58.83;2.63;;;;;;;;;;5097258;28;20939;-73
2022/04/12 13:06:48;;;;;;;61.07;2.90;;;;;;;;;;5096534;28;20491;-73
2022/04/12 13:09:15;;;;;;;57.87;2.40;;;;;;;;;;5096599;28;20462;-73
2022/04/12 13:11:43;;;;;;;59.13;2.70;;;;;;;;;;5096974;28;20892;-73
2022/04/12 13:14:10;;;;;;;57.83;2.43;;;;;;;;;;5096996;28;20493;-73
2022/04/12 13:16:37;;;;;;;60.77;2.40;;;;;;;;;;5096773;28;20481;-73
2022/04/12 13:19:04;;;;;;;59.40;2.47;;;;;;;;;;5092362;28;20502;-72
2022/04/12 13:21:32;;;;;;;58.37;2.67;;;;;;;;;;5096694;28;20474;-73
2022/04/12 13:24:00;;;;;;;59.00;2.80;;;;;;;;;;5096709;28;20530;-73
2022/04/12 13:26:28;;;;;;;57.80;2.23;;;;;;;;;;5096987;28;20448;-73
2022/04/12 13:28:55;;;;;;;60.57;2.80;;;;;;;;;;5095097;28;20506;-73
2022/04/12 13:31:22;;;;;;;58.10;2.40;;;;;;;;;;5095470;28;20451;-73
2022/04/12 13:33:49;;;;;;;58.77;2.33;;;;;;;;;;5094814;28;20583;-73
2022/04/12 13:36:16;;;;;;;62.30;2.43;;;;;;;;;;5093464;28;20458;-73
2022/04/12 13:38:43;;;;;;;59.57;2.40;;;;;;;;;;5093142;28;20559;-73
2022/04/12 13:41:12;;;;;;;57.77;2.40;;;;;;;;;;5093857;28;20958;-73
2022/04/12 13:43:39;;;;;;;58.77;3.00;;;;;;;;;;5094063;28;20941;-73
2022/04/12 13:46:06;;;;;;;57.40;2.17;;;;;;;;;;5094198;28;20447;-73
2022/04/12 13:48:36;;;;;;;59.07;2.20;;;;;;;;;;5093394;28;20782;-73
2022/04/12 13:51:03;;;;;;;57.80;2.43;;;;;;;;;;5092105;28;20454;-74
2022/04/12 13:53:31;;;;;;;62.13;2.80;;;;;;;;;;5096533;28;20571;-74
2022/04/12 13:55:58;;;;;;;58.20;2.30;;;;;;;;;;5095949;28;20843;-73
2022/04/12 13:58:26;;;;;;;58.50;2.30;;;;;;;;;;5094991;28;20522;-73
2022/04/12 14:00:54;;;;;;;57.60;2.50;;;;;;;;;;5095322;28;20534;-73
2022/04/12 14:03:21;;;;;;;58.13;2.53;;;;;;;;;;5096111;28;20541;-73
2022/04/12 14:05:50;;;;;;;58.07;2.50;;;;;;;;;;5096739;28;20493;-73
2022/04/12 14:08:17;;;;;;;59.20;2.60;;;;;;;;;;5095744;28;20524;-73
2022/04/12 14:10:45;;;;;;;57.70;2.30;;;;;;;;;;5096382;28;20450;-73
2022/04/12 14:13:12;;;;;;;57.57;2.37;;;;;;;;;;5096879;28;21037;-72
2022/04/12 14:15:40;;;;;;;58.37;2.73;;;;;;;;;;5096585;28;20453;-73
2022/04/12 14:18:07;;;;;;;58.60;2.70;;;;;;;;;;5096170;28;20481;-73
2022/04/12 14:20:34;;;;;;;60.77;2.70;;;;;;;;;;5095097;28;20958;-73
2022/04/12 14:23:02;;;;;;;57.87;2.43;;;;;;;;;;5092100;28;20447;-73
2022/04/12 14:25:29;;;;;;;60.97;2.60;;;;;;;;;;5095407;28;20450;-73
2022/04/12 14:27:56;;;;;;;58.37;2.50;;;;;;;;;;5094492;28;20569;-73
2022/04/12 14:30:23;;;;;;;60.70;3.00;;;;;;;;;;5094874;28;20442;-72
2022/04/12 14:32:52;;;;;;;58.83;2.47;;;;;;;;;;5094957;28;20521;-72
2022/04/12 14:35:19;;;;;;;58.27;2.53;;;;;;;;;;5095108;28;20532;-73
2022/04/12 14:37:46;;;;;;;59.77;2.70;;;;;;;;;;5093996;28;20473;-73